sensor_id;sensor_type;location;lat;lon;timestamp;P1;durP1;ratioP1;P2;durP2;ratioP2
68951;SDS011;56000;51.146;17.112;2023-04-12T00:01:29;11.20;;;6.50;;
68951;SDS011;56000;51.146;17.112;2023-04-12T00:04:02;11.80;;;6.20;;
68951;SDS011;56000;51.146;17.112;2023-04-12T00:06:35;14.40;;;7.90;;
68951;SDS011;56000;51.146;17.112;2023-04-12T00:09:09;13.60;;;7.90;;
68951;SDS011;56000;51.146;17.112;2023-04-12T00:11:42;18.50;;;8.20;;
68951;SDS011;56000;51.146;17.112;2023-04-12T00:14:15;17.80;;;8.50;;
68951;SDS011;56000;51.146;17.112;2023-04-12T00:16:48;13.60;;;7.20;;
68951;SDS011;56000;51.146;17.112;2023-04-12T00:19:21;17.30;;;7.70;;
68951;SDS011;56000;51.146;17.112;2023-04-12T00:21:56;15.00;;;8.00;;
68951;SDS011;56000;51.146;17.112;2023-04-12T00:24:30;15.10;;;8.20;;
68951;SDS011;56000;51.146;17.112;2023-04-12T00:27:03;15.20;;;7.50;;
68951;SDS011;56000;51.146;17.112;2023-04-12T00:29:38;14.80;;;8.30;;
68951;SDS011;56000;51.146;17.112;2023-04-12T00:32:11;17.20;;;7.90;;
68951;SDS011;56000;51.146;17.112;2023-04-12T00:34:44;18.30;;;7.70;;
68951;SDS011;56000;51.146;17.112;2023-04-12T00:37:17;17.90;;;8.50;;
68951;SDS011;56000;51.146;17.112;2023-04-12T00:39:50;14.10;;;7.60;;
68951;SDS011;56000;51.146;17.112;2023-04-12T00:42:23;14.70;;;7.80;;
68951;SDS011;56000;51.146;17.112;2023-04-12T00:44:56;15.60;;;8.20;;
68951;SDS011;56000;51.146;17.112;2023-04-12T00:47:29;17.80;;;8.00;;
68951;SDS011;56000;51.146;17.112;2023-04-12T00:50:06;16.30;;;8.10;;
68951;SDS011;56000;51.146;17.112;2023-04-12T00:52:40;18.20;;;7.80;;
68951;SDS011;56000;51.146;17.112;2023-04-12T00:55:13;20.50;;;8.50;;
68951;SDS011;56000;51.146;17.112;2023-04-12T00:57:46;16.30;;;7.70;;
68951;SDS011;56000;51.146;17.112;2023-04-12T01:00:20;16.60;;;8.00;;
68951;SDS011;56000;51.146;17.112;2023-04-12T01:02:53;21.30;;;8.20;;
68951;SDS011;56000;51.146;17.112;2023-04-12T01:05:28;17.80;;;7.70;;
68951;SDS011;56000;51.146;17.112;2023-04-12T01:08:07;18.20;;;8.10;;
68951;SDS011;56000;51.146;17.112;2023-04-12T01:10:48;13.90;;;7.60;;
68951;SDS011;56000;51.146;17.112;2023-04-12T01:13:35;15.10;;;6.50;;
68951;SDS011;56000;51.146;17.112;2023-04-12T01:16:19;11.50;;;7.00;;
68951;SDS011;56000;51.146;17.112;2023-04-12T01:19:01;16.50;;;6.90;;
68951;SDS011;56000;51.146;17.112;2023-04-12T01:21:44;16.00;;;6.50;;
68951;SDS011;56000;51.146;17.112;2023-04-12T01:24:36;18.30;;;6.80;;
68951;SDS011;56000;51.146;17.112;2023-04-12T01:27:31;12.50;;;6.60;;
68951;SDS011;56000;51.146;17.112;2023-04-12T01:30:11;16.70;;;7.10;;
68951;SDS011;56000;51.146;17.112;2023-04-12T01:32:49;18.80;;;7.70;;
68951;SDS011;56000;51.146;17.112;2023-04-12T01:35:25;13.30;;;6.00;;
68951;SDS011;56000;51.146;17.112;2023-04-12T01:38:03;12.70;;;6.60;;
68951;SDS011;56000;51.146;17.112;2023-04-12T01:40:36;13.00;;;6.00;;
68951;SDS011;56000;51.146;17.112;2023-04-12T01:43:12;13.30;;;6.30;;
68951;SDS011;56000;51.146;17.112;2023-04-12T01:45:45;15.60;;;6.30;;
68951;SDS011;56000;51.146;17.112;2023-04-12T01:48:18;13.80;;;6.90;;
68951;SDS011;56000;51.146;17.112;2023-04-12T01:50:54;15.10;;;6.50;;
68951;SDS011;56000;51.146;17.112;2023-04-12T01:53:38;16.20;;;6.10;;
68951;SDS011;56000;51.146;17.112;2023-04-12T01:56:18;24.20;;;5.90;;
68951;SDS011;56000;51.146;17.112;2023-04-12T01:58:52;14.60;;;6.10;;
68951;SDS011;56000;51.146;17.112;2023-04-12T02:01:27;14.10;;;5.90;;
68951;SDS011;56000;51.146;17.112;2023-04-12T02:04:01;14.90;;;6.00;;
68951;SDS011;56000;51.146;17.112;2023-04-12T02:06:35;13.00;;;6.20;;
68951;SDS011;56000;51.146;17.112;2023-04-12T02:09:10;14.20;;;6.60;;
68951;SDS011;56000;51.146;17.112;2023-04-12T02:11:46;9.60;;;5.60;;
68951;SDS011;56000;51.146;17.112;2023-04-12T02:14:20;14.10;;;6.40;;
68951;SDS011;56000;51.146;17.112;2023-04-12T02:16:53;12.80;;;5.70;;
68951;SDS011;56000;51.146;17.112;2023-04-12T02:19:27;16.00;;;6.50;;
68951;SDS011;56000;51.146;17.112;2023-04-12T02:22:01;13.80;;;6.50;;
68951;SDS011;56000;51.146;17.112;2023-04-12T02:24:34;14.90;;;6.60;;
68951;SDS011;56000;51.146;17.112;2023-04-12T02:27:07;10.80;;;6.20;;
68951;SDS011;56000;51.146;17.112;2023-04-12T02:29:40;19.70;;;7.00;;
68951;SDS011;56000;51.146;17.112;2023-04-12T02:32:13;15.00;;;6.80;;
68951;SDS011;56000;51.146;17.112;2023-04-12T02:34:48;13.90;;;6.80;;
68951;SDS011;56000;51.146;17.112;2023-04-12T02:37:21;14.30;;;6.00;;
68951;SDS011;56000;51.146;17.112;2023-04-12T02:39:56;12.60;;;5.50;;
68951;SDS011;56000;51.146;17.112;2023-04-12T02:42:32;17.00;;;6.90;;
68951;SDS011;56000;51.146;17.112;2023-04-12T02:45:06;11.80;;;6.20;;
68951;SDS011;56000;51.146;17.112;2023-04-12T02:47:41;14.60;;;6.80;;
68951;SDS011;56000;51.146;17.112;2023-04-12T02:50:14;14.30;;;7.30;;
68951;SDS011;56000;51.146;17.112;2023-04-12T02:52:52;17.90;;;6.90;;
68951;SDS011;56000;51.146;17.112;2023-04-12T02:55:25;16.80;;;7.80;;
68951;SDS011;56000;51.146;17.112;2023-04-12T02:58:00;14.40;;;7.40;;
68951;SDS011;56000;51.146;17.112;2023-04-12T03:00:34;12.60;;;6.90;;
68951;SDS011;56000;51.146;17.112;2023-04-12T03:03:07;12.60;;;6.90;;
68951;SDS011;56000;51.146;17.112;2023-04-12T03:05:40;16.50;;;6.90;;
68951;SDS011;56000;51.146;17.112;2023-04-12T03:08:17;19.00;;;7.40;;
68951;SDS011;56000;51.146;17.112;2023-04-12T03:10:56;13.70;;;7.30;;
68951;SDS011;56000;51.146;17.112;2023-04-12T03:13:30;14.70;;;7.20;;
68951;SDS011;56000;51.146;17.112;2023-04-12T03:16:20;15.00;;;7.00;;
68951;SDS011;56000;51.146;17.112;2023-04-12T03:19:06;15.60;;;7.00;;
68951;SDS011;56000;51.146;17.112;2023-04-12T03:21:39;19.80;;;8.30;;
68951;SDS011;56000;51.146;17.112;2023-04-12T03:24:13;16.70;;;7.00;;
68951;SDS011;56000;51.146;17.112;2023-04-12T03:26:47;13.00;;;7.70;;
68951;SDS011;56000;51.146;17.112;2023-04-12T03:29:24;17.10;;;7.10;;
68951;SDS011;56000;51.146;17.112;2023-04-12T03:31:57;16.20;;;8.00;;
68951;SDS011;56000;51.146;17.112;2023-04-12T03:34:30;17.80;;;8.30;;
68951;SDS011;56000;51.146;17.112;2023-04-12T03:37:10;16.30;;;7.70;;
68951;SDS011;56000;51.146;17.112;2023-04-12T03:39:44;16.20;;;7.70;;
68951;SDS011;56000;51.146;17.112;2023-04-12T03:42:22;16.80;;;7.30;;
68951;SDS011;56000;51.146;17.112;2023-04-12T03:45:05;12.10;;;6.50;;
68951;SDS011;56000;51.146;17.112;2023-04-12T03:47:40;12.90;;;7.20;;
68951;SDS011;56000;51.146;17.112;2023-04-12T03:50:14;12.90;;;7.20;;
68951;SDS011;56000;51.146;17.112;2023-04-12T03:52:51;15.40;;;6.70;;
68951;SDS011;56000;51.146;17.112;2023-04-12T03:55:27;13.40;;;6.60;;
68951;SDS011;56000;51.146;17.112;2023-04-12T03:58:01;15.40;;;7.00;;
68951;SDS011;56000;51.146;17.112;2023-04-12T04:00:37;13.80;;;6.10;;
68951;SDS011;56000;51.146;17.112;2023-04-12T04:03:11;14.10;;;6.50;;
68951;SDS011;56000;51.146;17.112;2023-04-12T04:05:48;11.50;;;6.10;;
68951;SDS011;56000;51.146;17.112;2023-04-12T04:08:22;18.70;;;6.20;;
68951;SDS011;56000;51.146;17.112;2023-04-12T04:10:55;14.50;;;6.50;;
68951;SDS011;56000;51.146;17.112;2023-04-12T04:13:32;13.40;;;6.60;;
68951;SDS011;56000;51.146;17.112;2023-04-12T04:16:09;12.30;;;6.70;;
68951;SDS011;56000;51.146;17.112;2023-04-12T04:18:42;13.50;;;7.30;;
68951;SDS011;56000;51.146;17.112;2023-04-12T04:21:16;16.70;;;6.20;;
68951;SDS011;56000;51.146;17.112;2023-04-12T04:23:52;16.30;;;7.00;;
68951;SDS011;56000;51.146;17.112;2023-04-12T04:26:28;21.30;;;7.00;;
68951;SDS011;56000;51.146;17.112;2023-04-12T04:29:09;18.90;;;6.90;;
68951;SDS011;56000;51.146;17.112;2023-04-12T04:31:42;15.00;;;8.00;;
68951;SDS011;56000;51.146;17.112;2023-04-12T04:34:16;18.60;;;7.40;;
68951;SDS011;56000;51.146;17.112;2023-04-12T04:36:52;13.50;;;7.60;;
68951;SDS011;56000;51.146;17.112;2023-04-12T04:39:28;15.30;;;7.80;;
68951;SDS011;56000;51.146;17.112;2023-04-12T04:42:02;14.40;;;7.80;;
68951;SDS011;56000;51.146;17.112;2023-04-12T04:44:40;16.80;;;7.30;;
68951;SDS011;56000;51.146;17.112;2023-04-12T04:47:13;14.00;;;8.00;;
68951;SDS011;56000;51.146;17.112;2023-04-12T04:49:46;18.30;;;8.10;;
68951;SDS011;56000;51.146;17.112;2023-04-12T04:52:25;17.50;;;7.40;;
68951;SDS011;56000;51.146;17.112;2023-04-12T04:55:02;14.90;;;7.10;;
68951;SDS011;56000;51.146;17.112;2023-04-12T04:57:40;14.90;;;8.10;;
68951;SDS011;56000;51.146;17.112;2023-04-12T05:00:14;18.30;;;7.70;;
68951;SDS011;56000;51.146;17.112;2023-04-12T05:02:54;16.30;;;7.00;;
68951;SDS011;56000;51.146;17.112;2023-04-12T05:05:29;15.30;;;7.60;;
68951;SDS011;56000;51.146;17.112;2023-04-12T05:08:09;15.30;;;6.80;;
68951;SDS011;56000;51.146;17.112;2023-04-12T05:10:43;17.40;;;7.60;;
68951;SDS011;56000;51.146;17.112;2023-04-12T05:13:20;11.10;;;6.00;;
68951;SDS011;56000;51.146;17.112;2023-04-12T05:15:53;15.50;;;7.20;;
68951;SDS011;56000;51.146;17.112;2023-04-12T05:18:26;21.20;;;7.50;;
68951;SDS011;56000;51.146;17.112;2023-04-12T05:21:03;16.90;;;7.30;;
68951;SDS011;56000;51.146;17.112;2023-04-12T05:23:40;12.30;;;6.50;;
68951;SDS011;56000;51.146;17.112;2023-04-12T05:26:16;13.40;;;7.20;;
68951;SDS011;56000;51.146;17.112;2023-04-12T05:28:51;8.50;;;5.40;;
68951;SDS011;56000;51.146;17.112;2023-04-12T05:31:24;12.80;;;6.10;;
68951;SDS011;56000;51.146;17.112;2023-04-12T05:33:59;10.30;;;5.40;;
68951;SDS011;56000;51.146;17.112;2023-04-12T05:36:35;10.10;;;5.70;;
68951;SDS011;56000;51.146;17.112;2023-04-12T05:39:07;13.40;;;6.60;;
68951;SDS011;56000;51.146;17.112;2023-04-12T05:41:41;8.60;;;5.70;;
68951;SDS011;56000;51.146;17.112;2023-04-12T05:44:14;14.00;;;7.00;;
68951;SDS011;56000;51.146;17.112;2023-04-12T05:46:47;14.30;;;6.30;;
68951;SDS011;56000;51.146;17.112;2023-04-12T05:49:20;14.20;;;7.40;;
68951;SDS011;56000;51.146;17.112;2023-04-12T05:51:53;14.20;;;6.90;;
68951;SDS011;56000;51.146;17.112;2023-04-12T05:54:26;9.70;;;5.60;;
68951;SDS011;56000;51.146;17.112;2023-04-12T05:57:00;10.70;;;5.90;;
68951;SDS011;56000;51.146;17.112;2023-04-12T05:59:33;11.40;;;6.00;;
68951;SDS011;56000;51.146;17.112;2023-04-12T06:02:06;10.40;;;5.60;;
68951;SDS011;56000;51.146;17.112;2023-04-12T06:04:39;11.10;;;5.90;;
68951;SDS011;56000;51.146;17.112;2023-04-12T06:07:21;12.20;;;5.90;;
68951;SDS011;56000;51.146;17.112;2023-04-12T06:09:54;17.40;;;6.10;;
68951;SDS011;56000;51.146;17.112;2023-04-12T06:12:27;13.40;;;5.60;;
68951;SDS011;56000;51.146;17.112;2023-04-12T06:15:00;9.00;;;5.20;;
68951;SDS011;56000;51.146;17.112;2023-04-12T06:17:34;10.40;;;4.50;;
68951;SDS011;56000;51.146;17.112;2023-04-12T06:20:08;14.20;;;5.20;;
68951;SDS011;56000;51.146;17.112;2023-04-12T06:22:42;12.60;;;5.60;;
68951;SDS011;56000;51.146;17.112;2023-04-12T06:25:18;10.40;;;5.30;;
68951;SDS011;56000;51.146;17.112;2023-04-12T06:27:52;6.90;;;4.50;;
68951;SDS011;56000;51.146;17.112;2023-04-12T06:30:26;10.50;;;5.30;;
68951;SDS011;56000;51.146;17.112;2023-04-12T06:33:00;8.70;;;5.00;;
68951;SDS011;56000;51.146;17.112;2023-04-12T06:35:33;8.20;;;5.20;;
68951;SDS011;56000;51.146;17.112;2023-04-12T06:38:06;12.00;;;4.90;;
68951;SDS011;56000;51.146;17.112;2023-04-12T06:40:39;8.90;;;4.50;;
68951;SDS011;56000;51.146;17.112;2023-04-12T06:43:12;11.80;;;6.20;;
68951;SDS011;56000;51.146;17.112;2023-04-12T06:45:47;7.60;;;4.70;;
68951;SDS011;56000;51.146;17.112;2023-04-12T06:48:20;7.80;;;4.30;;
68951;SDS011;56000;51.146;17.112;2023-04-12T06:50:53;16.70;;;5.50;;
68951;SDS011;56000;51.146;17.112;2023-04-12T06:53:26;9.50;;;5.20;;
68951;SDS011;56000;51.146;17.112;2023-04-12T06:56:04;10.10;;;5.10;;
68951;SDS011;56000;51.146;17.112;2023-04-12T06:58:38;7.10;;;4.40;;
68951;SDS011;56000;51.146;17.112;2023-04-12T07:01:11;10.80;;;4.40;;
68951;SDS011;56000;51.146;17.112;2023-04-12T07:03:44;8.90;;;3.80;;
68951;SDS011;56000;51.146;17.112;2023-04-12T07:06:17;10.10;;;4.40;;
68951;SDS011;56000;51.146;17.112;2023-04-12T07:08:54;9.30;;;5.20;;
68951;SDS011;56000;51.146;17.112;2023-04-12T07:11:28;10.20;;;4.30;;
68951;SDS011;56000;51.146;17.112;2023-04-12T07:14:01;7.80;;;3.90;;
68951;SDS011;56000;51.146;17.112;2023-04-12T07:16:35;10.00;;;4.70;;
68951;SDS011;56000;51.146;17.112;2023-04-12T07:19:08;12.30;;;4.90;;
68951;SDS011;56000;51.146;17.112;2023-04-12T07:21:41;11.00;;;4.70;;
68951;SDS011;56000;51.146;17.112;2023-04-12T07:24:14;10.20;;;4.40;;
68951;SDS011;56000;51.146;17.112;2023-04-12T07:26:47;10.60;;;5.00;;
68951;SDS011;56000;51.146;17.112;2023-04-12T07:29:22;6.60;;;4.00;;
68951;SDS011;56000;51.146;17.112;2023-04-12T07:31:55;6.50;;;3.90;;
68951;SDS011;56000;51.146;17.112;2023-04-12T07:34:30;6.20;;;3.40;;
68951;SDS011;56000;51.146;17.112;2023-04-12T07:37:04;7.00;;;3.40;;
68951;SDS011;56000;51.146;17.112;2023-04-12T07:39:37;6.30;;;3.60;;
68951;SDS011;56000;51.146;17.112;2023-04-12T07:42:10;10.00;;;3.70;;
68951;SDS011;56000;51.146;17.112;2023-04-12T07:44:43;5.50;;;3.70;;
68951;SDS011;56000;51.146;17.112;2023-04-12T07:47:16;7.30;;;3.90;;
68951;SDS011;56000;51.146;17.112;2023-04-12T07:49:49;6.50;;;3.70;;
68951;SDS011;56000;51.146;17.112;2023-04-12T07:52:22;4.90;;;3.60;;
68951;SDS011;56000;51.146;17.112;2023-04-12T07:54:56;10.80;;;3.70;;
68951;SDS011;56000;51.146;17.112;2023-04-12T07:57:29;6.50;;;3.20;;
68951;SDS011;56000;51.146;17.112;2023-04-12T08:00:03;5.90;;;3.00;;
68951;SDS011;56000;51.146;17.112;2023-04-12T08:02:44;4.50;;;2.80;;
68951;SDS011;56000;51.146;17.112;2023-04-12T08:05:17;6.40;;;2.70;;
68951;SDS011;56000;51.146;17.112;2023-04-12T08:07:50;7.20;;;3.50;;
68951;SDS011;56000;51.146;17.112;2023-04-12T08:10:23;6.60;;;2.80;;
68951;SDS011;56000;51.146;17.112;2023-04-12T08:12:56;5.30;;;2.90;;
68951;SDS011;56000;51.146;17.112;2023-04-12T08:15:30;6.20;;;3.50;;
68951;SDS011;56000;51.146;17.112;2023-04-12T08:18:03;5.00;;;2.80;;
68951;SDS011;56000;51.146;17.112;2023-04-12T08:20:36;5.40;;;3.00;;
68951;SDS011;56000;51.146;17.112;2023-04-12T08:23:10;6.80;;;3.50;;
68951;SDS011;56000;51.146;17.112;2023-04-12T08:25:44;4.00;;;2.70;;
68951;SDS011;56000;51.146;17.112;2023-04-12T08:28:17;6.20;;;2.70;;
68951;SDS011;56000;51.146;17.112;2023-04-12T08:30:51;7.10;;;2.90;;
68951;SDS011;56000;51.146;17.112;2023-04-12T08:33:25;4.30;;;2.70;;
68951;SDS011;56000;51.146;17.112;2023-04-12T08:35:58;5.30;;;2.60;;
68951;SDS011;56000;51.146;17.112;2023-04-12T08:38:31;6.00;;;2.40;;
68951;SDS011;56000;51.146;17.112;2023-04-12T08:41:15;8.40;;;2.80;;
68951;SDS011;56000;51.146;17.112;2023-04-12T08:43:48;5.00;;;2.50;;
68951;SDS011;56000;51.146;17.112;2023-04-12T08:46:21;7.10;;;2.80;;
68951;SDS011;56000;51.146;17.112;2023-04-12T08:48:54;5.80;;;2.20;;
68951;SDS011;56000;51.146;17.112;2023-04-12T08:51:27;6.80;;;3.00;;
68951;SDS011;56000;51.146;17.112;2023-04-12T08:54:02;6.90;;;3.40;;
68951;SDS011;56000;51.146;17.112;2023-04-12T08:56:36;7.40;;;3.50;;
68951;SDS011;56000;51.146;17.112;2023-04-12T08:59:12;8.00;;;3.60;;
68951;SDS011;56000;51.146;17.112;2023-04-12T09:01:46;10.20;;;3.50;;
68951;SDS011;56000;51.146;17.112;2023-04-12T09:04:20;10.50;;;3.20;;
68951;SDS011;56000;51.146;17.112;2023-04-12T09:06:53;7.50;;;3.20;;
68951;SDS011;56000;51.146;17.112;2023-04-12T09:09:43;4.80;;;2.60;;
68951;SDS011;56000;51.146;17.112;2023-04-12T09:12:18;8.10;;;3.00;;
68951;SDS011;56000;51.146;17.112;2023-04-12T09:15:07;8.40;;;3.40;;
68951;SDS011;56000;51.146;17.112;2023-04-12T09:17:42;6.70;;;3.00;;
68951;SDS011;56000;51.146;17.112;2023-04-12T09:20:24;5.50;;;2.80;;
68951;SDS011;56000;51.146;17.112;2023-04-12T09:22:57;10.40;;;2.50;;
68951;SDS011;56000;51.146;17.112;2023-04-12T09:25:39;4.80;;;2.30;;
68951;SDS011;56000;51.146;17.112;2023-04-12T09:28:24;10.00;;;3.80;;
68951;SDS011;56000;51.146;17.112;2023-04-12T09:30:59;6.40;;;2.40;;
68951;SDS011;56000;51.146;17.112;2023-04-12T09:33:37;6.40;;;2.40;;
68951;SDS011;56000;51.146;17.112;2023-04-12T09:36:11;5.80;;;2.30;;
68951;SDS011;56000;51.146;17.112;2023-04-12T09:39:00;5.60;;;2.50;;
68951;SDS011;56000;51.146;17.112;2023-04-12T09:41:34;3.50;;;2.20;;
68951;SDS011;56000;51.146;17.112;2023-04-12T09:44:07;6.40;;;2.70;;
68951;SDS011;56000;51.146;17.112;2023-04-12T09:46:55;5.30;;;2.50;;
68951;SDS011;56000;51.146;17.112;2023-04-12T09:49:40;5.00;;;2.10;;
68951;SDS011;56000;51.146;17.112;2023-04-12T09:52:14;4.20;;;2.10;;
68951;SDS011;56000;51.146;17.112;2023-04-12T09:54:48;4.80;;;2.00;;
68951;SDS011;56000;51.146;17.112;2023-04-12T09:57:21;3.50;;;2.20;;
68951;SDS011;56000;51.146;17.112;2023-04-12T09:59:55;6.80;;;2.10;;
68951;SDS011;56000;51.146;17.112;2023-04-12T10:02:40;3.10;;;1.70;;
68951;SDS011;56000;51.146;17.112;2023-04-12T10:05:22;4.20;;;1.80;;
68951;SDS011;56000;51.146;17.112;2023-04-12T10:07:57;4.20;;;1.80;;
68951;SDS011;56000;51.146;17.112;2023-04-12T10:10:32;5.70;;;1.80;;
68951;SDS011;56000;51.146;17.112;2023-04-12T10:13:05;3.80;;;2.10;;
68951;SDS011;56000;51.146;17.112;2023-04-12T10:15:40;4.20;;;2.00;;
68951;SDS011;56000;51.146;17.112;2023-04-12T10:18:14;4.90;;;1.90;;
68951;SDS011;56000;51.146;17.112;2023-04-12T10:20:48;3.00;;;1.60;;
68951;SDS011;56000;51.146;17.112;2023-04-12T10:23:22;8.30;;;2.60;;
68951;SDS011;56000;51.146;17.112;2023-04-12T10:25:56;6.30;;;2.30;;
68951;SDS011;56000;51.146;17.112;2023-04-12T10:28:30;3.90;;;1.90;;
68951;SDS011;56000;51.146;17.112;2023-04-12T10:34:03;6.20;;;2.40;;
68951;SDS011;56000;51.146;17.112;2023-04-12T10:36:53;4.90;;;2.20;;
68951;SDS011;56000;51.146;17.112;2023-04-12T10:39:38;7.30;;;2.70;;
68951;SDS011;56000;51.146;17.112;2023-04-12T10:42:28;3.90;;;1.70;;
68951;SDS011;56000;51.146;17.112;2023-04-12T10:48:07;3.80;;;1.70;;
68951;SDS011;56000;51.146;17.112;2023-04-12T10:55:33;4.20;;;1.80;;
68951;SDS011;56000;51.146;17.112;2023-04-12T10:58:03;4.30;;;2.00;;
68951;SDS011;56000;51.146;17.112;2023-04-12T11:06:58;4.10;;;2.30;;
68951;SDS011;56000;51.146;17.112;2023-04-12T11:09:41;2.80;;;1.80;;
68951;SDS011;56000;51.146;17.112;2023-04-12T11:12:20;10.10;;;3.30;;
68951;SDS011;56000;51.146;17.112;2023-04-12T11:14:59;5.90;;;2.00;;
68951;SDS011;56000;51.146;17.112;2023-04-12T11:25:51;3.70;;;1.60;;
68951;SDS011;56000;51.146;17.112;2023-04-12T11:28:25;2.60;;;1.70;;
68951;SDS011;56000;51.146;17.112;2023-04-12T11:31:03;5.20;;;1.80;;
68951;SDS011;56000;51.146;17.112;2023-04-12T11:33:38;5.20;;;2.10;;
68951;SDS011;56000;51.146;17.112;2023-04-12T11:36:12;3.60;;;1.90;;
68951;SDS011;56000;51.146;17.112;2023-04-12T11:38:47;4.90;;;1.30;;
68951;SDS011;56000;51.146;17.112;2023-04-12T11:41:21;4.70;;;1.90;;
68951;SDS011;56000;51.146;17.112;2023-04-12T11:43:55;5.50;;;1.90;;
68951;SDS011;56000;51.146;17.112;2023-04-12T11:46:33;2.90;;;1.60;;
68951;SDS011;56000;51.146;17.112;2023-04-12T11:49:06;2.00;;;1.40;;
68951;SDS011;56000;51.146;17.112;2023-04-12T11:51:40;2.40;;;1.60;;
68951;SDS011;56000;51.146;17.112;2023-04-12T11:54:15;2.10;;;1.50;;
68951;SDS011;56000;51.146;17.112;2023-04-12T11:56:48;3.20;;;1.70;;
68951;SDS011;56000;51.146;17.112;2023-04-12T11:59:22;5.20;;;1.50;;
68951;SDS011;56000;51.146;17.112;2023-04-12T12:02:00;5.00;;;1.70;;
68951;SDS011;56000;51.146;17.112;2023-04-12T12:04:51;7.30;;;1.80;;
68951;SDS011;56000;51.146;17.112;2023-04-12T12:07:26;3.00;;;1.40;;
68951;SDS011;56000;51.146;17.112;2023-04-12T12:10:00;3.10;;;1.40;;
68951;SDS011;56000;51.146;17.112;2023-04-12T12:12:34;3.10;;;1.70;;
68951;SDS011;56000;51.146;17.112;2023-04-12T12:15:08;4.40;;;1.60;;
68951;SDS011;56000;51.146;17.112;2023-04-12T12:17:44;3.00;;;1.40;;
68951;SDS011;56000;51.146;17.112;2023-04-12T12:20:23;3.10;;;1.80;;
68951;SDS011;56000;51.146;17.112;2023-04-12T12:22:56;5.70;;;1.70;;
68951;SDS011;56000;51.146;17.112;2023-04-12T12:25:30;3.90;;;1.60;;
68951;SDS011;56000;51.146;17.112;2023-04-12T12:28:03;2.00;;;1.30;;
68951;SDS011;56000;51.146;17.112;2023-04-12T12:30:42;1.70;;;1.30;;
68951;SDS011;56000;51.146;17.112;2023-04-12T12:33:19;5.00;;;1.80;;
68951;SDS011;56000;51.146;17.112;2023-04-12T12:36:08;2.70;;;1.40;;
68951;SDS011;56000;51.146;17.112;2023-04-12T12:38:42;9.80;;;2.00;;
68951;SDS011;56000;51.146;17.112;2023-04-12T12:41:19;3.30;;;1.80;;
68951;SDS011;56000;51.146;17.112;2023-04-12T12:43:53;5.40;;;1.70;;
68951;SDS011;56000;51.146;17.112;2023-04-12T12:46:27;3.10;;;1.70;;
68951;SDS011;56000;51.146;17.112;2023-04-12T12:49:20;3.10;;;1.50;;
68951;SDS011;56000;51.146;17.112;2023-04-12T12:51:53;3.10;;;1.70;;
68951;SDS011;56000;51.146;17.112;2023-04-12T12:54:26;4.00;;;1.90;;
68951;SDS011;56000;51.146;17.112;2023-04-12T12:57:09;6.60;;;1.90;;
68951;SDS011;56000;51.146;17.112;2023-04-12T12:59:42;5.70;;;1.80;;
68951;SDS011;56000;51.146;17.112;2023-04-12T13:02:15;4.50;;;1.70;;
68951;SDS011;56000;51.146;17.112;2023-04-12T13:04:49;4.60;;;1.50;;
68951;SDS011;56000;51.146;17.112;2023-04-12T13:07:22;3.10;;;1.60;;
68951;SDS011;56000;51.146;17.112;2023-04-12T13:09:55;2.60;;;1.60;;
68951;SDS011;56000;51.146;17.112;2023-04-12T13:12:28;3.50;;;1.70;;
68951;SDS011;56000;51.146;17.112;2023-04-12T13:15:01;4.90;;;3.00;;
68951;SDS011;56000;51.146;17.112;2023-04-12T13:17:50;2.70;;;1.60;;
68951;SDS011;56000;51.146;17.112;2023-04-12T13:20:23;2.80;;;1.90;;
68951;SDS011;56000;51.146;17.112;2023-04-12T13:22:57;2.00;;;1.60;;
68951;SDS011;56000;51.146;17.112;2023-04-12T13:25:30;2.50;;;1.60;;
68951;SDS011;56000;51.146;17.112;2023-04-12T13:28:03;3.70;;;1.40;;
68951;SDS011;56000;51.146;17.112;2023-04-12T13:30:37;5.40;;;1.80;;
68951;SDS011;56000;51.146;17.112;2023-04-12T13:33:10;5.50;;;1.80;;
68951;SDS011;56000;51.146;17.112;2023-04-12T13:35:49;2.80;;;1.80;;
68951;SDS011;56000;51.146;17.112;2023-04-12T13:38:22;1.90;;;1.50;;
68951;SDS011;56000;51.146;17.112;2023-04-12T13:40:56;5.60;;;1.80;;
68951;SDS011;56000;51.146;17.112;2023-04-12T13:43:28;3.40;;;1.60;;
68951;SDS011;56000;51.146;17.112;2023-04-12T13:46:02;3.60;;;1.70;;
68951;SDS011;56000;51.146;17.112;2023-04-12T13:48:36;5.80;;;2.00;;
68951;SDS011;56000;51.146;17.112;2023-04-12T13:51:10;3.10;;;1.80;;
68951;SDS011;56000;51.146;17.112;2023-04-12T13:53:43;5.50;;;1.90;;
68951;SDS011;56000;51.146;17.112;2023-04-12T13:56:17;2.50;;;1.70;;
68951;SDS011;56000;51.146;17.112;2023-04-12T13:58:50;2.30;;;1.60;;
68951;SDS011;56000;51.146;17.112;2023-04-12T14:01:23;2.60;;;1.70;;
68951;SDS011;56000;51.146;17.112;2023-04-12T14:03:56;3.90;;;2.20;;
68951;SDS011;56000;51.146;17.112;2023-04-12T14:06:30;3.00;;;1.70;;
68951;SDS011;56000;51.146;17.112;2023-04-12T14:09:03;2.70;;;1.60;;
68951;SDS011;56000;51.146;17.112;2023-04-12T14:11:48;3.70;;;1.50;;
68951;SDS011;56000;51.146;17.112;2023-04-12T14:14:21;2.10;;;1.70;;
68951;SDS011;56000;51.146;17.112;2023-04-12T14:16:55;5.30;;;2.00;;
68951;SDS011;56000;51.146;17.112;2023-04-12T14:19:30;2.30;;;1.80;;
68951;SDS011;56000;51.146;17.112;2023-04-12T14:22:03;3.50;;;1.80;;
68951;SDS011;56000;51.146;17.112;2023-04-12T14:24:37;2.20;;;1.50;;
68951;SDS011;56000;51.146;17.112;2023-04-12T14:27:10;3.20;;;1.60;;
68951;SDS011;56000;51.146;17.112;2023-04-12T14:29:47;3.10;;;1.70;;
68951;SDS011;56000;51.146;17.112;2023-04-12T14:32:20;13.90;;;10.40;;
68951;SDS011;56000;51.146;17.112;2023-04-12T14:34:53;5.10;;;2.00;;
68951;SDS011;56000;51.146;17.112;2023-04-12T14:37:26;3.40;;;1.80;;
68951;SDS011;56000;51.146;17.112;2023-04-12T14:39:59;2.90;;;1.70;;
68951;SDS011;56000;51.146;17.112;2023-04-12T14:42:35;2.60;;;1.60;;
68951;SDS011;56000;51.146;17.112;2023-04-12T14:45:09;3.40;;;1.70;;
68951;SDS011;56000;51.146;17.112;2023-04-12T14:47:44;2.90;;;1.70;;
68951;SDS011;56000;51.146;17.112;2023-04-12T14:50:17;4.10;;;1.80;;
68951;SDS011;56000;51.146;17.112;2023-04-12T14:52:51;3.50;;;1.70;;
68951;SDS011;56000;51.146;17.112;2023-04-12T14:55:24;4.20;;;1.70;;
68951;SDS011;56000;51.146;17.112;2023-04-12T14:57:58;2.70;;;1.50;;
68951;SDS011;56000;51.146;17.112;2023-04-12T15:00:33;2.10;;;1.60;;
68951;SDS011;56000;51.146;17.112;2023-04-12T15:03:06;3.00;;;1.70;;
68951;SDS011;56000;51.146;17.112;2023-04-12T15:05:40;3.00;;;1.70;;
68951;SDS011;56000;51.146;17.112;2023-04-12T15:08:13;3.10;;;1.40;;
68951;SDS011;56000;51.146;17.112;2023-04-12T15:10:47;3.30;;;1.80;;
68951;SDS011;56000;51.146;17.112;2023-04-12T15:13:20;5.00;;;2.00;;
68951;SDS011;56000;51.146;17.112;2023-04-12T15:18:30;2.20;;;1.50;;
68951;SDS011;56000;51.146;17.112;2023-04-12T15:21:04;3.70;;;2.00;;
68951;SDS011;56000;51.146;17.112;2023-04-12T15:23:40;4.00;;;3.40;;
68951;SDS011;56000;51.146;17.112;2023-04-12T15:26:14;4.80;;;2.10;;
68951;SDS011;56000;51.146;17.112;2023-04-12T15:28:47;2.90;;;1.80;;
68951;SDS011;56000;51.146;17.112;2023-04-12T15:31:20;3.20;;;2.00;;
68951;SDS011;56000;51.146;17.112;2023-04-12T15:33:53;6.90;;;3.10;;
68951;SDS011;56000;51.146;17.112;2023-04-12T15:36:27;3.60;;;2.30;;
68951;SDS011;56000;51.146;17.112;2023-04-12T15:39:03;3.90;;;2.10;;
68951;SDS011;56000;51.146;17.112;2023-04-12T15:41:38;3.00;;;1.70;;
68951;SDS011;56000;51.146;17.112;2023-04-12T15:44:12;5.20;;;1.90;;